Hawley, WA

7:17 AM PST on February 26, 2017 (GMT -0800)
| | Change Station
Active Advisory: Winter Weather Advisory

Elev -9999 ft 0.00 °N, 0.00 °E | Updated 4 minutes ago

Rain
Rain
°F
Feels Like °F
N
Wind Variable Wind from North
Gusts mph

Today
High -- | Low -- °F
--% Chance of Precip.
Yesterday
High -- | Low -- °F
Precip. -- in
Pressure 29.71 in
Visibility 7.0 miles
Clouds Scattered Clouds 1200 ft
Overcast 2600 ft
Dew Point Not available.
Humidity Not available.
Rainfall --
Snow Depth Not available.
6:55 AM 5:50 PM
New Moon, 0% visible
METAR KBFI 261453Z 12006KT 7SM -RA SCT012 OVC026 02/02 A2971 RMK AO2 SLP059 P0001 60003 T00220022 56012 $
Pressure 29.71 in
Visibility 7.0 miles
Clouds Scattered Clouds 1200 ft
Overcast 2600 ft
Dew Point Not available.
Humidity Not available.
Rainfall --
Snow Depth Not available.
6:55 AM 5:50 PM
New Moon, 0% visible
METAR KBFI 261453Z 12006KT 7SM -RA SCT012 OVC026 02/02 A2971 RMK AO2 SLP059 P0001 60003 T00220022 56012 $

Get Your Daily Forecast Email!

Thanks for signing up!

Be on the lookout for a verification email in your inbox.

You'll start receiving the daily forecast at 8 AM.

×

10-Day Weather Forecast

Almanac

Astronomy

Feb. 26, 2017 Rise Set
Actual Time
Civil Twilight
Nautical Twilight
Astronomical Twilight
Moon
Length of Visible Light
Length of Day
Tomorrow will be .
, % of the Moon is Illuminated

Today's Extremes

State Highs State Lows

Community

WunderPhotos

Upload Photos

1,962,540 photos uploaded!

WunderBlog® & News

Nearby

Air Quality

  Air Quality AQ Index Pollutant
Not available.

Snow Depth

Station Depth Elevation

Earthquake Activity

City Distance Mag. Time & Date
Minimum magnitude displayed is 2.5.

Coastal Water Temperatures

Place Temperature

Stations

Nearby Weather Stations

Station Location Temp. Windchill Dew Point Humidity Wind Precip. Elev Updated Type
                   

Watches & Warnings

Winter Weather Advisory
Issued: 3:00 AM PST Feb. 26, 2017 – National Weather Service

... Winter Weather Advisory remains in effect until 10 am PST this
morning...

* some affected locations... Seattle, Tacoma, Everett, Bremerton,
Bellevue, Olympia, Bellingham, Friday Harbor.

* Snow accumulations... around 1 inch on hills above 300 feet
elevation. Areas below 300 feet will see little or no
accumulation. Higher hills and inland areas may get up to three inches.

* Snow level... 300 feet this morning rising to 1000 feet in the
afternoon.

* Main impact... snow will cause locally slippery roadways and
hazardous driving conditions.


Precautionary/preparedness actions...

A Winter Weather Advisory for snow means that periods of snow
will cause primarily travel difficulties. Be prepared for snow
covered roads and limited visibilities, and use caution while
driving.